Time;durP1;ratioP1;P1;durP2;ratioP2;P2;SDS_P1;SDS_P2;PMS_P1;PMS_P2;Temp;Humidity;BMP_temperature;BMP_pressure;BME280_temperature;BME280_humidity;BME280_pressure;Samples;Min_cycle;Max_cycle;Signal;HPM_P1;HPM_P2
2023/11/07 00:02:19;;;;;;;4.03;2.13;;;;;;;10.47;89.79;97734.53;5026058;28;20045;-39
2023/11/07 00:04:46;;;;;;;4.07;1.60;;;;;;;10.34;90.47;97706.84;5049366;28;20083;-46
2023/11/07 00:07:12;;;;;;;8.18;2.63;;;;;;;10.48;90.84;97731.00;5031002;28;20478;-41
2023/11/07 00:09:38;;;;;;;8.20;2.70;;;;;;;10.46;90.85;97730.28;5038220;28;20090;-41
2023/11/07 00:12:05;;;;;;;4.40;1.98;;;;;;;10.45;91.57;97740.75;5031258;28;20045;-40
2023/11/07 00:14:31;;;;;;;2.85;1.73;;;;;;;10.39;92.97;97742.00;5046757;28;20410;-40
2023/11/07 00:16:57;;;;;;;3.63;2.10;;;;;;;10.36;93.15;97744.81;5017059;28;20063;-39
2023/11/07 00:19:24;;;;;;;4.20;1.88;;;;;;;10.34;94.20;97740.63;5034969;28;20041;-39
2023/11/07 00:21:50;;;;;;;5.30;2.10;;;;;;;10.33;94.32;97744.97;5039689;28;20049;-41
2023/11/07 00:24:16;;;;;;;3.78;2.42;;;;;;;10.35;94.34;97737.94;5041873;28;20041;-40
2023/11/07 00:26:42;;;;;;;4.63;2.05;;;;;;;10.20;94.33;97718.94;5036412;28;20528;-39
2023/11/07 00:29:11;;;;;;;3.65;2.13;;;;;;;10.16;95.19;97714.06;5038884;28;20048;-40
2023/11/07 00:31:37;;;;;;;2.65;1.83;;;;;;;10.32;95.21;97745.91;5038558;28;20132;-39
2023/11/07 00:34:05;;;;;;;2.53;1.80;;;;;;;10.33;95.62;97744.97;5036961;28;20075;-39
2023/11/07 00:36:32;;;;;;;2.25;1.33;;;;;;;10.32;95.88;97742.47;5024342;28;20160;-40
2023/11/07 00:38:59;;;;;;;4.78;2.28;;;;;;;9.98;95.37;97692.69;5039220;28;20052;-40
2023/11/07 00:41:25;;;;;;;3.55;2.08;;;;;;;10.34;95.86;97751.00;5043221;28;20597;-38
2023/11/07 00:43:51;;;;;;;5.45;2.35;;;;;;;10.36;96.16;97746.56;5043284;28;20049;-41
2023/11/07 00:46:18;;;;;;;3.92;2.17;;;;;;;10.39;95.46;97761.94;5039745;28;20625;-40
2023/11/07 00:48:44;;;;;;;3.35;2.13;;;;;;;10.23;95.15;97743.06;5051169;28;20045;-39
2023/11/07 00:51:11;;;;;;;4.03;2.47;;;;;;;10.34;95.79;97757.03;5052598;28;20042;-40
2023/11/07 00:53:38;;;;;;;3.45;1.90;;;;;;;10.34;95.67;97748.41;5050984;28;20114;-39
2023/11/07 00:56:07;;;;;;;5.15;2.00;;;;;;;10.38;95.97;97757.66;5046667;28;20115;-40
2023/11/07 00:58:34;;;;;;;2.83;2.00;;;;;;;10.38;95.77;97763.69;5031643;28;20052;-39
2023/11/07 01:01:03;;;;;;;5.50;2.72;;;;;;;10.40;95.72;97763.59;5041728;28;20051;-40
2023/11/07 01:03:28;;;;;;;2.92;1.58;;;;;;;10.39;95.59;97762.78;5028549;28;20165;-39
2023/11/07 01:05:54;;;;;;;4.05;2.30;;;;;;;10.37;95.75;97771.56;5035755;28;20037;-38
2023/11/07 01:08:21;;;;;;;4.22;2.17;;;;;;;10.36;95.75;97765.56;5034749;28;20041;-40
2023/11/07 01:10:47;;;;;;;5.30;2.35;;;;;;;10.39;96.06;97770.56;5035322;28;20029;-38
2023/11/07 01:13:14;;;;;;;3.15;2.10;;;;;;;10.43;95.77;97763.41;5031691;28;20048;-39
2023/11/07 01:15:41;;;;;;;3.67;2.10;;;;;;;10.42;95.34;97774.72;5039727;28;20037;-39
2023/11/07 01:18:07;;;;;;;4.80;2.17;;;;;;;10.40;95.26;97767.03;5034943;28;20069;-39
2023/11/07 01:20:34;;;;;;;3.20;1.30;;;;;;;10.43;95.14;97771.19;5034550;28;20044;-40
2023/11/07 01:23:01;;;;;;;3.25;2.00;;;;;;;10.42;95.28;97775.53;5049826;28;20033;-40
2023/11/07 01:25:30;;;;;;;3.92;2.40;;;;;;;10.44;95.26;97778.06;5033035;28;20081;-38
2023/11/07 01:27:56;;;;;;;5.03;2.50;;;;;;;10.47;94.78;97783.88;5029023;28;20122;-40
2023/11/07 01:30:22;;;;;;;2.45;1.70;;;;;;;10.34;94.60;97754.44;5049693;28;20493;-39
2023/11/07 01:32:50;;;;;;;3.80;2.28;;;;;;;10.48;94.75;97774.31;5049975;28;20091;-40
2023/11/07 01:35:17;;;;;;;4.65;2.33;;;;;;;10.33;94.52;97747.56;5033706;28;20038;-40
2023/11/07 01:37:43;;;;;;;3.08;2.13;;;;;;;10.47;94.84;97777.84;5034808;28;20065;-39
2023/11/07 01:40:10;;;;;;;3.78;1.55;;;;;;;10.46;94.96;97771.84;5034475;28;20124;-39
2023/11/07 01:42:48;;;;;;;2.88;1.98;;;;;;;10.45;95.08;97787.53;5026084;28;20052;-39
2023/11/07 01:45:14;;;;;;;6.30;2.97;;;;;;;10.43;94.65;97787.59;5035835;28;20046;-39
2023/11/07 01:47:43;;;;;;;4.95;2.30;;;;;;;10.44;94.50;97778.91;5034132;28;20311;-39
2023/11/07 01:50:13;;;;;;;3.90;2.20;;;;;;;10.46;94.58;97779.63;5035010;28;20048;-40
2023/11/07 01:52:41;;;;;;;2.58;1.50;;;;;;;10.47;94.76;97791.66;5049532;28;20074;-41
2023/11/07 01:55:08;;;;;;;4.50;2.65;;;;;;;10.47;95.23;97777.84;5034743;28;20048;-40
2023/11/07 01:57:41;;;;;;;3.53;2.30;;;;;;;10.51;95.42;97784.53;5048246;28;20043;-40
2023/11/07 02:00:11;;;;;;;4.32;2.10;;;;;;;10.50;95.49;97788.06;5047168;28;20128;-39
2023/11/07 02:02:39;;;;;;;4.07;1.90;;;;;;;10.44;96.08;97786.69;5038456;28;20040;-39
2023/11/07 02:05:06;;;;;;;4.65;2.03;;;;;;;10.42;97.01;97795.50;5040181;28;20060;-39
2023/11/07 02:07:32;;;;;;;3.88;2.35;;;;;;;10.39;97.70;97798.28;5034095;28;20037;-39
2023/11/07 02:09:59;;;;;;;5.18;2.47;;;;;;;10.38;98.25;97794.88;5032694;28;20041;-39
2023/11/07 02:12:25;;;;;;;4.35;2.13;;;;;;;10.40;98.62;97799.97;5034636;28;20037;-41
2023/11/07 02:14:51;;;;;;;4.28;2.30;;;;;;;10.22;98.96;97780.34;5031095;28;20037;-39
2023/11/07 02:17:17;;;;;;;6.20;3.10;;;;;;;10.16;99.28;97778.97;5035065;28;20108;-39
2023/11/07 02:19:43;;;;;;;5.47;2.90;;;;;;;10.31;99.01;97803.97;5033580;28;20048;-40
2023/11/07 02:22:12;;;;;;;3.30;2.15;;;;;;;10.31;99.85;97809.16;5027969;28;20084;-39
2023/11/07 02:24:38;;;;;;;;;;;;;;;10.32;100.00;97812.59;5043030;28;20132;-39
2023/11/07 02:27:06;;;;;;;3.70;1.77;;;;;;;10.30;99.68;97819.66;5031030;28;20016;-39
2023/11/07 02:29:32;;;;;;;3.60;2.38;;;;;;;10.30;99.21;97807.53;5033926;28;20480;-41
2023/11/07 02:32:01;;;;;;;3.38;1.85;;;;;;;10.33;99.23;97809.06;5048553;28;20125;-39
2023/11/07 02:34:28;;;;;;;4.68;2.40;;;;;;;10.20;98.95;97796.84;5035265;28;20632;-40
2023/11/07 02:36:54;;;;;;;4.55;2.13;;;;;;;10.36;98.47;97816.69;5028307;28;20069;-40
2023/11/07 02:39:21;;;;;;;4.80;2.60;;;;;;;10.37;98.04;97826.97;5048799;28;20068;-39
2023/11/07 02:41:47;;;;;;;3.80;2.33;;;;;;;10.39;97.95;97813.88;5033041;28;20474;-39
2023/11/07 02:44:15;;;;;;;2.83;1.80;;;;;;;10.44;96.98;97817.84;5028793;28;20149;-40
2023/11/07 02:46:41;;;;;;;4.50;2.38;;;;;;;10.45;96.23;97818.69;5033302;28;20097;-39
2023/11/07 02:49:08;;;;;;;3.63;2.30;;;;;;;10.49;96.56;97827.94;5029764;28;20045;-38
2023/11/07 02:51:34;;;;;;;3.35;2.08;;;;;;;10.50;95.69;97816.63;5031481;28;20056;-39
2023/11/07 02:54:00;;;;;;;4.80;3.10;;;;;;;10.50;95.78;97827.88;5032381;28;20382;-40
2023/11/07 02:56:27;;;;;;;7.68;2.33;;;;;;;10.45;95.35;97813.50;5050452;28;20063;-41
2023/11/07 02:58:54;;;;;;;3.95;2.13;;;;;;;10.49;94.90;97814.97;5040298;28;20170;-40
2023/11/07 03:01:21;;;;;;;8.25;2.70;;;;;;;10.52;95.09;97820.78;5031878;28;20045;-39
2023/11/07 03:03:49;;;;;;;4.70;2.53;;;;;;;10.55;94.69;97824.97;5030671;28;20043;-40
2023/11/07 03:06:16;;;;;;;4.32;2.42;;;;;;;10.43;93.88;97792.81;5052289;28;20128;-40
2023/11/07 03:08:42;;;;;;;4.18;2.10;;;;;;;10.61;93.25;97827.19;5033303;28;20226;-39
2023/11/07 03:11:08;;;;;;;3.60;2.10;;;;;;;10.33;92.64;97785.69;5047810;28;20071;-40
2023/11/07 03:13:36;;;;;;;5.78;3.10;;;;;;;10.62;92.59;97834.84;5033142;28;20056;-40
2023/11/07 03:16:04;;;;;;;2.88;1.70;;;;;;;10.62;92.28;97827.06;5032290;28;20041;-39
2023/11/07 03:18:31;;;;;;;3.47;1.90;;;;;;;10.61;92.23;97833.22;5041993;28;20045;-40
2023/11/07 03:20:57;;;;;;;3.92;2.15;;;;;;;10.59;92.59;97837.66;5032659;28;20044;-39
2023/11/07 03:23:24;;;;;;;2.20;1.40;;;;;;;10.60;93.20;97834.13;5033074;28;20045;-40
2023/11/07 03:25:52;;;;;;;5.18;1.80;;;;;;;10.60;92.89;97836.75;5023762;28;20045;-40
2023/11/07 03:28:20;;;;;;;4.90;2.70;;;;;;;10.61;92.83;97833.22;5035706;28;20049;-40
2023/11/07 03:30:47;;;;;;;6.22;2.65;;;;;;;10.65;92.66;97839.03;5032767;28;20037;-39
2023/11/07 03:33:19;;;;;;;3.97;1.88;;;;;;;10.65;93.06;97840.81;5032964;28;20509;-40
2023/11/07 03:35:46;;;;;;;5.68;2.50;;;;;;;10.43;92.21;97805.78;5036448;28;20037;-40
2023/11/07 03:38:13;;;;;;;3.25;1.98;;;;;;;10.65;92.55;97846.84;5032090;28;20037;-39
2023/11/07 03:40:40;;;;;;;3.15;2.25;;;;;;;10.62;92.16;97842.66;5031249;28;20110;-39
2023/11/07 03:43:06;;;;;;;2.10;1.58;;;;;;;10.47;92.07;97832.41;5013413;28;20076;-40
2023/11/07 03:45:32;;;;;;;4.57;1.60;;;;;;;10.62;92.25;97860.03;5030864;28;20069;-39
2023/11/07 03:47:59;;;;;;;2.33;1.45;;;;;;;10.61;92.40;97855.75;5032346;28;20073;-41
2023/11/07 03:50:25;;;;;;;3.75;1.90;;;;;;;10.59;91.79;97861.06;5034116;28;20535;-40
2023/11/07 03:52:51;;;;;;;3.38;2.25;;;;;;;10.60;91.96;97856.69;5036034;28;20041;-42
2023/11/07 03:55:17;;;;;;;3.20;2.10;;;;;;;10.62;91.89;97857.44;5029164;28;20045;-40
2023/11/07 03:57:45;;;;;;;2.63;1.70;;;;;;;10.61;91.24;97853.16;5047188;28;20881;-39
2023/11/07 04:00:11;;;;;;;2.97;1.95;;;;;;;10.64;91.80;97858.16;5032206;28;20044;-40
2023/11/07 04:02:37;;;;;;;2.97;1.58;;;;;;;10.63;92.10;97857.31;5029035;28;20540;-40
2023/11/07 04:05:04;;;;;;;2.25;1.30;;;;;;;10.61;92.15;97860.97;5029541;28;20071;-40
2023/11/07 04:07:31;;;;;;;3.13;1.85;;;;;;;10.59;92.86;97860.22;5032751;28;20052;-40
2023/11/07 04:09:57;;;;;;;3.28;1.90;;;;;;;10.36;94.06;97843.50;5032478;28;20468;-39
2023/11/07 04:12:24;;;;;;;3.55;2.40;;;;;;;10.46;94.79;97856.72;5029735;28;20528;-40
2023/11/07 04:14:50;;;;;;;7.38;1.67;;;;;;;10.41;95.29;97880.41;5030861;28;20057;-39
2023/11/07 04:17:16;;;;;;;4.00;2.10;;;;;;;10.16;97.13;97867.25;5031824;28;20041;-40
2023/11/07 04:19:42;;;;;;;3.20;1.80;;;;;;;9.76;100.00;97835.91;5031944;28;20036;-40
2023/11/07 04:22:08;;;;;;;5.05;2.55;;;;;;;9.81;100.00;97868.53;5028478;28;20429;-39
2023/11/07 04:24:38;;;;;;;7.18;2.35;;;;;;;9.74;100.00;97868.06;5029809;28;20045;-40
2023/11/07 04:27:07;;;;;;;4.13;1.70;;;;;;;9.70;100.00;97890.78;5029572;28;20136;-40
2023/11/07 04:29:33;;;;;;;4.03;2.03;;;;;;;9.64;100.00;97885.09;5032478;28;20045;-39
2023/11/07 04:32:01;;;;;;;3.63;1.83;;;;;;;9.60;100.00;97868.06;5028461;28;20041;-40
2023/11/07 04:34:27;;;;;;;3.75;1.63;;;;;;;9.58;100.00;97880.28;5041719;28;20041;-40
2023/11/07 04:36:56;;;;;;;4.43;1.95;;;;;;;9.55;100.00;97878.72;5031728;28;20037;-41
2023/11/07 04:39:23;;;;;;;2.33;1.10;;;;;;;9.53;100.00;97880.56;5032426;28;20456;-41
2023/11/07 04:41:49;;;;;;;5.13;2.08;;;;;;;9.52;100.00;97889.28;5030866;28;20071;-40
2023/11/07 04:44:15;;;;;;;3.75;1.75;;;;;;;9.49;100.00;97883.41;5029143;28;20045;-40
2023/11/07 04:46:42;;;;;;;4.55;2.53;;;;;;;9.50;100.00;97900.66;5032006;28;20053;-40
2023/11/07 04:49:09;;;;;;;6.47;2.38;;;;;;;9.33;100.00;97870.50;5028616;28;20091;-40
2023/11/07 04:51:36;;;;;;;6.40;2.35;;;;;;;9.46;100.00;97889.63;5023865;28;20052;-40
2023/11/07 04:54:03;;;;;;;5.03;2.58;;;;;;;9.45;100.00;97889.72;5031651;28;20045;-41
2023/11/07 04:56:28;;;;;;;4.78;2.50;;;;;;;9.50;100.00;97901.50;5031571;28;20033;-40
2023/11/07 04:58:54;;;;;;;3.25;2.13;;;;;;;9.52;100.00;97898.81;5030262;28;20099;-40
2023/11/07 05:01:21;;;;;;;7.85;2.53;;;;;;;9.55;100.00;97906.41;5031019;28;20304;-41
2023/11/07 05:03:48;;;;;;;4.38;2.40;;;;;;;9.61;100.00;97898.28;5028348;28;20473;-42
2023/11/07 05:06:18;;;;;;;10.05;2.72;;;;;;;9.37;100.00;97858.22;5031126;28;20045;-40
2023/11/07 05:08:44;;;;;;;9.98;3.13;;;;;;;9.64;100.00;97911.03;5033014;28;20410;-40
2023/11/07 05:11:12;;;;;;;4.47;2.10;;;;;;;9.68;100.00;97907.38;5047748;28;20048;-40
2023/11/07 05:13:38;;;;;;;3.85;2.13;;;;;;;9.66;100.00;97917.00;5034198;28;20095;-40
2023/11/07 05:16:05;;;;;;;6.70;3.03;;;;;;;9.37;100.00;97871.19;5032951;28;20043;-41
2023/11/07 05:18:31;;;;;;;3.00;2.20;;;;;;;9.65;100.00;97916.16;5031830;28;20046;-41
2023/11/07 05:20:57;;;;;;;3.97;1.65;;;;;;;9.69;100.00;97928.00;5035999;28;20128;-40
2023/11/07 05:23:23;;;;;;;4.57;2.15;;;;;;;9.71;100.00;97927.94;5032371;28;20060;-40
2023/11/07 05:25:49;;;;;;;4.90;2.05;;;;;;;9.71;100.00;97935.72;5033703;28;20037;-40
2023/11/07 05:28:15;;;;;;;3.97;1.40;;;;;;;9.57;100.00;97904.56;5034914;28;20037;-40
2023/11/07 05:30:41;;;;;;;4.68;1.00;;;;;;;9.76;100.00;97929.34;5050179;28;20414;-39
2023/11/07 05:33:06;;;;;;;4.43;1.50;;;;;;;9.75;100.00;97927.66;5049518;28;20057;-40
2023/11/07 05:35:32;;;;;;;7.70;2.67;;;;;;;9.69;100.00;97942.75;5034972;28;20037;-40
2023/11/07 05:37:59;;;;;;;5.28;1.95;;;;;;;9.66;100.00;97945.53;5017497;28;20051;-39
2023/11/07 05:40:25;;;;;;;4.63;2.60;;;;;;;9.65;100.00;97946.44;5034587;28;20041;-41
2023/11/07 05:42:52;;;;;;;2.85;1.95;;;;;;;9.63;100.00;97956.91;5034245;28;20140;-39
2023/11/07 05:45:18;;;;;;;4.20;1.88;;;;;;;9.58;100.00;97955.50;5045886;28;20038;-40
2023/11/07 05:47:44;;;;;;;2.30;1.00;;;;;;;9.53;100.00;97950.59;5032762;28;20103;-40
2023/11/07 05:50:11;;;;;;;1.98;1.15;;;;;;;9.57;100.00;97957.28;5033370;28;20053;-40
2023/11/07 05:52:37;;;;;;;3.53;1.80;;;;;;;9.59;100.00;97973.59;5034529;28;20048;-39
2023/11/07 05:55:06;;;;;;;5.35;2.30;;;;;;;9.62;100.00;97970.00;5050307;28;20041;-43
2023/11/07 05:57:35;;;;;;;3.33;1.80;;;;;;;9.72;100.00;97984.94;5034612;28;20037;-43
2023/11/07 06:00:05;;;;;;;3.95;1.30;;;;;;;9.77;100.00;97976.88;5033972;28;20718;-40
2023/11/07 06:02:38;;;;;;;4.25;1.50;;;;;;;9.85;100.00;97992.81;5031846;28;20044;-39
2023/11/07 06:05:06;;;;;;;2.28;1.45;;;;;;;9.86;100.00;97985.88;5033271;28;20036;-39
2023/11/07 06:07:33;;;;;;;3.85;2.15;;;;;;;9.60;100.00;97945.88;5046651;28;20037;-40
2023/11/07 06:10:00;;;;;;;4.45;2.13;;;;;;;9.82;100.00;97995.63;5063240;28;20139;-41
2023/11/07 06:12:31;;;;;;;4.35;1.70;;;;;;;9.84;100.00;97987.75;5040408;28;20041;-40
2023/11/07 06:14:57;;;;;;;2.45;1.50;;;;;;;9.88;100.00;97997.03;5033589;28;20040;-41
2023/11/07 06:17:23;;;;;;;2.70;1.15;;;;;;;9.89;100.00;97994.31;5033920;28;20041;-40
2023/11/07 06:19:49;;;;;;;2.70;1.05;;;;;;;9.99;100.00;97994.63;5045295;28;20114;-39
2023/11/07 06:22:15;;;;;;;4.00;1.20;;;;;;;10.02;100.00;98004.81;5041504;28;20432;-38
2023/11/07 06:24:42;;;;;;;2.85;1.80;;;;;;;10.14;100.00;97999.75;5031619;28;20512;-41
2023/11/07 06:27:07;;;;;;;3.75;1.05;;;;;;;10.11;100.00;98002.50;5018223;28;20531;-41
2023/11/07 06:29:34;;;;;;;3.50;1.05;;;;;;;9.92;100.00;97975.16;5038625;28;20041;-39
2023/11/07 06:32:00;;;;;;;1.02;0.70;;;;;;;10.07;100.00;98014.00;5044627;28;20079;-38
2023/11/07 06:34:26;;;;;;;2.45;1.20;;;;;;;10.06;100.00;98008.91;5034064;28;20488;-39
2023/11/07 06:36:52;;;;;;;0.82;0.70;;;;;;;10.11;100.00;98017.25;5045141;28;20144;-38
2023/11/07 06:39:19;;;;;;;0.70;0.70;;;;;;;10.13;100.00;98023.22;5053828;28;20162;-41
2023/11/07 06:41:45;;;;;;;1.00;0.80;;;;;;;10.23;100.00;98018.34;5055852;28;20036;-40
2023/11/07 06:44:14;;;;;;;2.20;1.33;;;;;;;10.32;100.00;98017.78;5035808;28;20072;-39
2023/11/07 06:46:43;;;;;;;1.55;0.95;;;;;;;10.41;100.00;98020.69;5065438;28;20998;-39
2023/11/07 06:49:09;;;;;;;1.60;0.90;;;;;;;10.47;100.00;98025.47;5047402;28;20041;-40
2023/11/07 06:51:35;;;;;;;1.10;0.90;;;;;;;10.44;100.00;98030.03;5052522;28;20680;-39
2023/11/07 06:54:04;;;;;;;2.58;0.80;;;;;;;10.45;100.00;98029.94;5041925;28;20052;-40
2023/11/07 06:56:31;;;;;;;2.83;0.98;;;;;;;10.56;100.00;98037.09;5050373;28;20037;-39
2023/11/07 06:58:58;;;;;;;2.50;1.27;;;;;;;10.66;100.00;98032.19;5036180;28;20044;-39
2023/11/07 07:01:25;;;;;;;1.52;1.20;;;;;;;10.65;100.00;98033.09;5033345;28;20040;-38
2023/11/07 07:03:52;;;;;;;3.08;1.45;;;;;;;10.73;99.95;98039.50;5032508;28;20041;-39
2023/11/07 07:06:21;;;;;;;2.22;0.95;;;;;;;10.68;99.45;98035.53;5036351;28;20048;-40
2023/11/07 07:08:47;;;;;;;1.70;1.10;;;;;;;10.54;98.83;98015.56;5050682;28;20041;-38
2023/11/07 07:11:13;;;;;;;2.53;1.17;;;;;;;10.78;98.94;98042.63;5033370;28;20052;-39
2023/11/07 07:13:39;;;;;;;3.72;1.23;;;;;;;10.88;98.31;98048.13;5030273;28;20812;-39
2023/11/07 07:16:06;;;;;;;3.15;1.20;;;;;;;11.00;97.91;98048.19;5039938;28;20041;-40
2023/11/07 07:18:34;;;;;;;2.30;1.40;;;;;;;11.03;96.69;98052.38;5027426;28;20558;-40
2023/11/07 07:21:00;;;;;;;1.60;1.00;;;;;;;11.01;95.41;98059.44;5031177;28;20056;-39
2023/11/07 07:23:28;;;;;;;3.38;1.33;;;;;;;10.95;94.99;98059.81;5046440;28;20052;-39
2023/11/07 07:25:56;;;;;;;12.30;1.57;;;;;;;10.91;94.89;98055.72;5034758;28;20517;-41
2023/11/07 07:28:25;;;;;;;2.40;1.40;;;;;;;10.97;94.73;98057.97;5031117;28;20288;-41
2023/11/07 07:30:51;;;;;;;2.17;1.30;;;;;;;10.95;94.71;98067.59;5050204;28;20041;-40
2023/11/07 07:33:19;;;;;;;4.40;1.45;;;;;;;10.95;94.72;98071.03;5033553;28;20132;-40
2023/11/07 07:35:46;;;;;;;1.60;1.25;;;;;;;10.98;94.58;98070.88;5033039;28;20084;-40
2023/11/07 07:38:12;;;;;;;3.45;1.40;;;;;;;10.97;93.49;98082.19;5056643;28;20583;-39
2023/11/07 07:40:38;;;;;;;1.92;1.00;;;;;;;10.93;92.96;98074.69;5041103;28;20175;-39
2023/11/07 07:43:10;;;;;;;2.45;1.30;;;;;;;10.97;92.52;98078.75;5031984;28;20069;-40
2023/11/07 07:45:39;;;;;;;2.25;1.30;;;;;;;10.97;92.41;98076.16;5028704;28;20048;-40
2023/11/07 07:48:07;;;;;;;2.38;1.30;;;;;;;11.01;92.57;98088.03;5035673;28;20374;-40
2023/11/07 07:50:33;;;;;;;3.05;1.50;;;;;;;11.02;92.33;98084.50;5061198;28;20087;-40
2023/11/07 07:53:02;;;;;;;3.08;1.80;;;;;;;10.99;92.48;98080.31;5053623;28;20415;-38
2023/11/07 07:55:28;;;;;;;4.97;1.70;;;;;;;11.06;92.84;98083.38;5042035;28;20040;-39
2023/11/07 07:57:55;;;;;;;4.43;2.05;;;;;;;10.97;93.25;98063.16;5034124;28;20596;-39
2023/11/07 08:00:24;;;;;;;4.45;1.70;;;;;;;11.13;93.59;98094.25;5031662;28;20057;-40
2023/11/07 08:02:53;;;;;;;2.72;1.90;;;;;;;10.98;94.25;98064.84;5031872;28;20044;-38
2023/11/07 08:05:20;;;;;;;6.10;2.15;;;;;;;11.11;95.38;98090.91;5028500;28;20521;-38
2023/11/07 08:07:50;;;;;;;4.20;1.83;;;;;;;11.15;96.35;98092.41;5027757;28;20606;-37
2023/11/07 08:10:18;;;;;;;6.28;2.00;;;;;;;11.09;96.77;98088.41;5031533;28;20053;-38
2023/11/07 08:12:44;;;;;;;5.00;1.77;;;;;;;11.05;97.20;98103.34;5052064;28;20539;-41
2023/11/07 08:15:11;;;;;;;5.45;1.98;;;;;;;11.08;97.65;98098.91;5044361;28;20170;-39
2023/11/07 08:17:40;;;;;;;6.07;2.30;;;;;;;11.11;97.49;98102.16;5042623;28;20036;-40
2023/11/07 08:20:15;;;;;;;5.60;1.60;;;;;;;10.92;97.86;98109.41;5040349;28;20038;-39
2023/11/07 08:22:46;;;;;;;6.15;2.45;;;;;;;10.87;99.09;98101.06;5039908;28;20033;-39
2023/11/07 08:25:14;;;;;;;3.33;2.10;;;;;;;10.84;99.42;98111.63;5012814;28;20137;-38
2023/11/07 08:27:44;;;;;;;3.00;1.75;;;;;;;10.84;100.00;98115.06;5039263;28;20052;-40
2023/11/07 08:30:15;;;;;;;3.53;1.48;;;;;;;10.82;100.00;98114.34;5039208;28;20091;-39
2023/11/07 08:32:44;;;;;;;1.92;1.35;;;;;;;10.76;100.00;98119.91;5040228;28;20056;-39
2023/11/07 08:35:11;;;;;;;5.25;1.55;;;;;;;10.66;100.00;98129.19;5038143;28;20095;-39
2023/11/07 08:37:41;;;;;;;1.70;1.25;;;;;;;10.60;100.00;98129.53;5042410;28;20475;-38
2023/11/07 08:40:08;;;;;;;2.10;1.20;;;;;;;10.24;100.00;98097.91;5025158;28;20053;-38
2023/11/07 08:42:43;;;;;;;3.80;1.00;;;;;;;10.13;100.00;98114.09;5049809;28;20076;-40
2023/11/07 08:45:15;;;;;;;2.40;1.40;;;;;;;10.19;100.00;98127.59;5047529;28;20091;-40
2023/11/07 08:47:43;;;;;;;4.50;1.30;;;;;;;10.19;100.00;98129.34;5046155;28;20166;-39
2023/11/07 08:50:11;;;;;;;3.10;1.38;;;;;;;10.20;100.00;98128.44;5043408;28;20479;-40
2023/11/07 08:52:37;;;;;;;6.68;1.67;;;;;;;10.25;100.00;98141.16;5045965;28;20041;-41
2023/11/07 08:55:05;;;;;;;2.10;1.40;;;;;;;10.31;100.00;98138.19;5048633;28;20115;-47
2023/11/07 08:57:32;;;;;;;2.33;1.13;;;;;;;10.33;100.00;98128.53;5041431;28;20048;-40
2023/11/07 08:59:58;;;;;;;2.53;1.63;;;;;;;10.28;100.00;98131.41;5044255;28;20098;-41
2023/11/07 09:02:24;;;;;;;1.73;1.40;;;;;;;10.21;100.00;98132.69;5038205;28;20508;-41
2023/11/07 09:04:50;;;;;;;1.27;0.82;;;;;;;10.18;100.00;98133.72;5049982;28;20050;-43
2023/11/07 09:07:16;;;;;;;2.22;1.13;;;;;;;9.97;100.00;98106.34;5035241;28;20045;-41
2023/11/07 09:09:46;;;;;;;2.00;1.38;;;;;;;10.25;100.00;98130.75;5040351;28;20036;-40
2023/11/07 09:12:12;;;;;;;2.95;1.70;;;;;;;10.18;100.00;98119.88;5049651;28;20131;-40
2023/11/07 09:14:38;;;;;;;1.90;1.20;;;;;;;10.32;100.00;98137.25;5033971;28;20041;-41
2023/11/07 09:17:05;;;;;;;6.50;1.50;;;;;;;10.28;100.00;98138.38;5042629;28;20045;-41
2023/11/07 09:19:31;;;;;;;2.50;1.45;;;;;;;10.31;100.00;98146.00;5029695;28;20103;-38
2023/11/07 09:21:57;;;;;;;3.05;1.80;;;;;;;10.41;100.00;98154.94;5035331;28;20422;-40
2023/11/07 09:24:23;;;;;;;8.55;1.30;;;;;;;10.57;100.00;98148.72;5032404;28;20029;-41
2023/11/07 09:26:49;;;;;;;4.28;2.40;;;;;;;10.61;100.00;98144.19;5037360;28;20053;-40
2023/11/07 09:29:16;;;;;;;1.95;1.33;;;;;;;10.56;100.00;98144.47;5038735;28;20432;-40
2023/11/07 09:31:43;;;;;;;2.50;1.50;;;;;;;10.50;100.00;98121.44;5049107;28;20523;-40
2023/11/07 09:34:09;;;;;;;2.60;1.50;;;;;;;10.90;100.00;98151.09;5034382;28;20041;-39
2023/11/07 09:36:38;;;;;;;2.38;1.35;;;;;;;11.12;100.00;98136.78;5049079;28;20044;-41
2023/11/07 09:39:05;;;;;;;1.98;1.63;;;;;;;11.33;100.00;98151.09;5047605;28;20073;-39
2023/11/07 09:41:32;;;;;;;2.55;1.65;;;;;;;11.28;100.00;98147.94;5031556;28;20111;-38
2023/11/07 09:44:01;;;;;;;4.88;1.63;;;;;;;11.17;100.00;98148.59;5044682;28;20048;-40
2023/11/07 09:46:27;;;;;;;3.00;2.03;;;;;;;11.21;99.42;98157.88;5031986;28;20056;-39
2023/11/07 09:48:53;;;;;;;5.40;1.50;;;;;;;11.09;96.69;98158.63;5033705;28;20039;-39
2023/11/07 09:51:21;;;;;;;2.17;1.40;;;;;;;11.15;97.05;98158.25;5059145;28;20045;-40
2023/11/07 09:53:50;;;;;;;1.88;1.33;;;;;;;11.11;96.81;98150.72;5044888;28;20122;-40
2023/11/07 09:56:16;;;;;;;2.38;1.00;;;;;;;11.21;96.20;98175.22;5045411;28;20501;-40
2023/11/07 09:58:47;;;;;;;2.53;1.40;;;;;;;11.19;96.05;98172.75;5047162;28;20040;-40
2023/11/07 10:01:14;;;;;;;2.00;1.35;;;;;;;11.35;95.73;98176.09;5043467;28;20044;-41
2023/11/07 10:03:40;;;;;;;2.70;1.30;;;;;;;11.22;94.46;98177.75;5044666;28;20078;-43
2023/11/07 10:06:06;;;;;;;2.83;1.30;;;;;;;11.15;94.61;98166.03;5043261;28;20144;-41
2023/11/07 10:08:32;;;;;;;0.95;0.73;;;;;;;11.41;94.51;98180.03;5044177;28;20515;-38
2023/11/07 10:11:08;;;;;;;2.38;0.90;;;;;;;11.24;92.06;98193.28;5042989;28;20045;-38
2023/11/07 10:13:34;;;;;;;3.42;0.73;;;;;;;11.04;91.85;98165.88;5043125;28;20044;-40
2023/11/07 10:16:07;;;;;;;2.35;0.95;;;;;;;11.09;91.36;98191.59;5044628;28;20416;-39
2023/11/07 10:18:47;;;;;;;1.70;0.75;;;;;;;10.99;91.04;98201.72;5046394;28;20044;-40
2023/11/07 10:21:14;;;;;;;1.83;0.80;;;;;;;10.88;90.36;98199.75;5043178;28;20044;-40
2023/11/07 10:23:40;;;;;;;1.60;0.40;;;;;;;10.92;90.30;98197.81;5052306;28;20187;-40
2023/11/07 10:26:11;;;;;;;1.55;0.82;;;;;;;11.10;89.74;98204.50;5046522;28;20048;-40
2023/11/07 10:28:37;;;;;;;1.83;0.57;;;;;;;11.17;88.67;98210.16;5048230;28;20048;-40
2023/11/07 10:31:04;;;;;;;2.25;0.68;;;;;;;11.31;88.05;98208.41;5052334;28;20370;-39
2023/11/07 10:33:34;;;;;;;1.70;0.90;;;;;;;11.56;87.46;98210.34;5048725;28;20467;-46
2023/11/07 10:36:02;;;;;;;2.22;0.88;;;;;;;11.95;87.26;98217.47;5048791;28;20117;-39
2023/11/07 10:38:29;;;;;;;2.03;0.80;;;;;;;12.13;85.53;98212.88;5048802;28;20389;-42
2023/11/07 10:40:55;;;;;;;1.48;0.70;;;;;;;12.28;84.73;98228.34;5049707;28;20037;-39
2023/11/07 10:43:35;;;;;;;1.85;0.85;;;;;;;12.32;83.45;98213.34;5051351;28;20056;-40
2023/11/07 10:46:03;;;;;;;2.08;0.93;;;;;;;12.30;83.34;98230.84;5049124;28;20067;-39
2023/11/07 10:48:30;;;;;;;1.45;0.75;;;;;;;12.36;81.73;98221.78;5049319;28;20049;-38
2023/11/07 10:51:03;;;;;;;2.10;0.88;;;;;;;12.12;79.80;98235.47;5035718;28;20071;-39
2023/11/07 10:53:33;;;;;;;1.17;0.75;;;;;;;12.08;79.79;98231.41;5047275;28;20044;-38
2023/11/07 10:55:59;;;;;;;;;;;;;;;12.01;79.19;98230.09;5050317;28;20044;-39
2023/11/07 10:58:32;;;;;;;1.20;0.60;;;;;;;11.92;79.47;98235.06;5052053;28;19920;-40
2023/11/07 11:01:03;;;;;;;1.15;0.70;;;;;;;11.89;80.09;98231.69;5052431;28;20068;-40
2023/11/07 11:03:30;;;;;;;2.53;0.95;;;;;;;11.93;80.61;98241.94;5054891;28;20574;-40
2023/11/07 11:06:00;;;;;;;4.10;1.10;;;;;;;11.95;80.83;98243.50;5046709;28;20418;-39
2023/11/07 11:08:26;;;;;;;0.70;0.70;;;;;;;11.82;79.97;98220.03;5048891;28;20047;-39
2023/11/07 11:10:57;;;;;;;1.02;0.73;;;;;;;12.06;80.31;98250.66;5031704;28;20131;-39
2023/11/07 11:13:26;;;;;;;3.65;1.00;;;;;;;12.05;80.05;98235.94;5042559;28;20131;-38
2023/11/07 11:15:53;;;;;;;1.50;0.90;;;;;;;12.37;79.89;98262.56;5051385;28;20095;-41
2023/11/07 11:19:12;;;;;;;3.45;0.80;;;;;;;12.45;79.23;98258.53;5039855;28;20048;-39
2023/11/07 11:21:51;;;;;;;2.37;1.03;;;;;;;12.61;78.72;98261.00;5039220;28;20045;-40
2023/11/07 11:24:47;;;;;;;0.90;0.60;;;;;;;12.52;77.93;98261.56;5048221;28;20299;-40
2023/11/07 11:27:21;;;;;;;1.27;0.70;;;;;;;12.27;78.43;98270.97;5029878;28;20045;-40
2023/11/07 11:29:49;;;;;;;2.08;0.73;;;;;;;12.31;78.85;98269.00;5056489;28;20041;-39
2023/11/07 11:32:26;;;;;;;1.23;0.60;;;;;;;12.18;78.13;98262.91;5031704;28;20489;-39
2023/11/07 11:34:57;;;;;;;1.60;1.00;;;;;;;12.15;78.23;98257.88;5035536;28;20047;-39